Time;durP1;ratioP1;P1;durP2;ratioP2;P2;SDS_P1;SDS_P2;PMS_P1;PMS_P2;Temp;Humidity;BMP_temperature;BMP_pressure;BME280_temperature;BME280_humidity;BME280_pressure;Samples;Min_cycle;Max_cycle;Signal;HPM_P1;HPM_P2
2024/01/19 00:01:31;;;;;;;16.08;7.93;;;-1.00;99.90;;;;;;5092308;28;20054;-39
2024/01/19 00:03:58;;;;;;;15.75;8.50;;;-1.00;99.90;;;;;;5094459;28;20024;-38
2024/01/19 00:06:23;;;;;;;17.85;7.97;;;-1.00;99.90;;;;;;5094782;28;20459;-39
2024/01/19 00:08:49;;;;;;;15.15;7.35;;;-1.00;99.90;;;;;;5096907;28;20100;-39
2024/01/19 00:11:15;;;;;;;16.88;8.80;;;-1.00;99.90;;;;;;5090955;28;20182;-39
2024/01/19 00:13:41;;;;;;;13.85;7.47;;;-1.00;99.90;;;;;;5093472;28;20071;-39
2024/01/19 00:16:07;;;;;;;12.15;6.60;;;-1.00;99.90;;;;;;5096077;28;20046;-39
2024/01/19 00:18:32;;;;;;;19.05;8.25;;;-1.00;99.90;;;;;;5093801;28;20016;-38
2024/01/19 00:20:58;;;;;;;17.40;7.88;;;-1.00;99.90;;;;;;5094706;28;20117;-39
2024/01/19 00:23:23;;;;;;;10.27;6.35;;;-1.00;99.90;;;;;;5093647;28;20099;-39
2024/01/19 00:25:49;;;;;;;11.63;6.30;;;-1.00;99.90;;;;;;5093919;28;20055;-39
2024/01/19 00:28:15;;;;;;;13.70;6.47;;;-0.90;99.90;;;;;;5091320;28;20020;-40
2024/01/19 00:30:40;;;;;;;9.55;5.70;;;-0.90;99.90;;;;;;5092566;28;20028;-39
2024/01/19 00:33:06;;;;;;;14.88;6.10;;;-0.90;99.90;;;;;;5096490;28;20039;-39
2024/01/19 00:35:31;;;;;;;13.88;5.88;;;-0.90;99.90;;;;;;5094067;28;20469;-39
2024/01/19 00:37:57;;;;;;;14.27;5.57;;;-0.90;99.90;;;;;;5094978;28;20406;-39
2024/01/19 00:40:23;;;;;;;13.82;5.43;;;-0.80;99.90;;;;;;5095091;28;20055;-39
2024/01/19 00:42:49;;;;;;;10.07;4.88;;;-0.90;99.90;;;;;;5093725;28;20542;-39
2024/01/19 00:45:14;;;;;;;8.18;4.55;;;-0.80;99.90;;;;;;5094251;28;20111;-39
2024/01/19 00:47:40;;;;;;;8.43;4.60;;;-0.80;99.90;;;;;;5094394;28;20026;-39
2024/01/19 00:50:07;;;;;;;8.18;4.85;;;-0.70;99.90;;;;;;5096209;28;20081;-39
2024/01/19 00:52:33;;;;;;;11.30;4.20;;;-0.70;99.90;;;;;;5092991;28;20032;-40
2024/01/19 00:54:58;;;;;;;7.13;4.05;;;-0.70;99.90;;;;;;5095512;28;20496;-39
2024/01/19 00:57:24;;;;;;;9.75;4.20;;;-0.70;99.90;;;;;;5095872;28;20412;-39
2024/01/19 00:59:49;;;;;;;9.18;4.82;;;-0.70;99.90;;;;;;5094240;28;20503;-39
2024/01/19 01:02:15;;;;;;;6.75;4.13;;;-0.60;99.90;;;;;;5094482;28;20452;-39
2024/01/19 01:04:40;;;;;;;6.65;4.00;;;-0.60;99.90;;;;;;5094620;28;20027;-39
2024/01/19 01:07:06;;;;;;;12.95;4.20;;;-0.60;99.90;;;;;;5095506;28;20109;-39
2024/01/19 01:09:31;;;;;;;7.18;3.85;;;-0.60;99.90;;;;;;5095111;28;20028;-38
2024/01/19 01:11:57;;;;;;;8.25;3.70;;;-0.60;99.90;;;;;;5094140;28;20052;-39
2024/01/19 01:14:22;;;;;;;5.75;3.75;;;-0.60;99.90;;;;;;5096348;28;20035;-38
2024/01/19 01:16:48;;;;;;;5.45;3.55;;;-0.60;99.90;;;;;;5094521;28;20016;-38
2024/01/19 01:19:14;;;;;;;12.68;4.57;;;-0.60;99.90;;;;;;5097477;28;20536;-38
2024/01/19 01:21:39;;;;;;;11.13;3.88;;;-0.50;99.90;;;;;;5094164;28;20020;-38
2024/01/19 01:24:05;;;;;;;13.02;3.65;;;-0.50;99.90;;;;;;5096907;28;20439;-38
2024/01/19 01:26:30;;;;;;;10.48;3.50;;;-0.50;99.90;;;;;;5095626;28;20046;-39
2024/01/19 01:28:56;;;;;;;7.60;3.45;;;-0.50;99.90;;;;;;5095430;28;20028;-39
2024/01/19 01:31:22;;;;;;;8.95;3.83;;;-0.50;99.90;;;;;;5096726;28;20031;-38
2024/01/19 01:33:48;;;;;;;9.00;4.25;;;-0.50;99.90;;;;;;5094686;28;20043;-38
2024/01/19 01:36:14;;;;;;;12.35;4.10;;;-0.50;99.90;;;;;;5097816;28;20480;-38
2024/01/19 01:38:40;;;;;;;6.70;3.78;;;-0.50;99.90;;;;;;5094684;28;20024;-38
2024/01/19 01:41:05;;;;;;;9.27;4.07;;;-0.50;99.90;;;;;;5096514;28;20559;-39
2024/01/19 01:43:31;;;;;;;8.93;5.07;;;-0.50;99.90;;;;;;5096350;28;20069;-39
2024/01/19 01:45:57;;;;;;;12.27;4.35;;;-0.50;99.90;;;;;;5096230;28;20016;-39
2024/01/19 01:48:24;;;;;;;10.18;4.00;;;-0.50;99.90;;;;;;5097691;28;20338;-39
2024/01/19 01:50:49;;;;;;;14.25;4.18;;;-0.40;99.90;;;;;;5094684;28;20013;-39
2024/01/19 01:53:18;;;;;;;16.67;4.40;;;-0.50;99.90;;;;;;5093424;28;20318;-39
2024/01/19 01:55:44;;;;;;;13.80;4.65;;;-0.50;99.90;;;;;;5092365;28;20024;-39
2024/01/19 01:58:10;;;;;;;15.23;4.50;;;-0.40;99.90;;;;;;5097856;28;20031;-40
2024/01/19 02:00:36;;;;;;;11.45;6.13;;;-0.50;99.90;;;;;;5095035;28;20567;-39
2024/01/19 02:03:03;;;;;;;12.10;4.40;;;-0.40;99.90;;;;;;5096908;28;20529;-39
2024/01/19 02:05:29;;;;;;;9.57;4.68;;;-0.50;99.90;;;;;;5094450;28;20039;-39
2024/01/19 02:07:54;;;;;;;12.48;4.07;;;-0.50;99.90;;;;;;5095828;28;20057;-39
2024/01/19 02:10:20;;;;;;;10.82;4.80;;;-0.40;99.90;;;;;;5096359;28;20111;-39
2024/01/19 02:12:45;;;;;;;7.68;4.28;;;-0.40;99.90;;;;;;5094499;28;20034;-39
2024/01/19 02:15:22;;;;;;;9.05;4.78;;;-0.40;99.90;;;;;;5093681;28;20377;-38
2024/01/19 02:17:50;;;;;;;10.68;4.60;;;-0.40;99.90;;;;;;5100701;28;20020;-39
2024/01/19 02:20:15;;;;;;;7.97;4.55;;;-0.40;99.90;;;;;;5103415;28;20066;-39
2024/01/19 02:22:43;;;;;;;13.63;4.90;;;-0.40;99.90;;;;;;5098847;28;20048;-39
2024/01/19 02:25:09;;;;;;;10.27;4.22;;;-0.40;99.90;;;;;;5097192;28;20039;-39
2024/01/19 02:27:34;;;;;;;11.85;4.22;;;-0.40;99.90;;;;;;5094245;28;20020;-39
2024/01/19 02:30:01;;;;;;;12.68;5.05;;;-0.50;99.90;;;;;;5095437;28;20452;-39
2024/01/19 02:32:27;;;;;;;8.95;4.68;;;-0.40;99.90;;;;;;5094922;28;20552;-38
2024/01/19 02:34:52;;;;;;;10.18;4.47;;;-0.40;99.90;;;;;;5097374;28;20081;-39
2024/01/19 02:37:18;;;;;;;14.50;4.53;;;-0.40;99.90;;;;;;5104077;28;20016;-39
2024/01/19 02:39:43;;;;;;;9.77;4.97;;;-0.40;99.90;;;;;;5098477;28;20468;-38
2024/01/19 02:42:09;;;;;;;12.25;4.88;;;-0.40;99.90;;;;;;5101621;28;20421;-38
2024/01/19 02:44:35;;;;;;;9.57;4.63;;;-0.40;99.90;;;;;;5100180;28;20024;-39
2024/01/19 02:47:00;;;;;;;14.07;5.15;;;-0.40;99.90;;;;;;5100070;28;20028;-39
2024/01/19 02:49:26;;;;;;;7.13;4.35;;;-0.40;99.90;;;;;;5101362;28;20027;-39
2024/01/19 02:51:51;;;;;;;10.27;5.07;;;-0.40;99.90;;;;;;5098186;28;20024;-39
2024/01/19 02:54:16;;;;;;;8.02;4.40;;;-0.40;99.90;;;;;;5102145;28;20024;-39
2024/01/19 02:56:42;;;;;;;10.02;4.93;;;-0.40;99.90;;;;;;5099218;28;20031;-39
2024/01/19 02:59:08;;;;;;;12.07;4.78;;;-0.40;99.90;;;;;;5101431;28;20477;-39
2024/01/19 03:01:33;;;;;;;9.88;5.13;;;-0.40;99.90;;;;;;5099952;28;20023;-39
2024/01/19 03:03:59;;;;;;;11.90;5.93;;;-0.40;99.90;;;;;;5098960;28;20124;-38
2024/01/19 03:06:25;;;;;;;12.65;6.43;;;-0.40;99.90;;;;;;5101479;28;20020;-39
2024/01/19 03:08:50;;;;;;;13.52;6.32;;;-0.40;99.90;;;;;;5098645;28;20024;-39
2024/01/19 03:11:16;;;;;;;14.70;6.47;;;-0.40;99.90;;;;;;5102049;28;20358;-39
2024/01/19 03:14:00;;;;;;;11.00;5.68;;;-0.40;99.90;;;;;;5099348;27;20039;-39
2024/01/19 03:16:26;;;;;;;10.23;5.25;;;-0.40;99.90;;;;;;5095711;28;20116;-38
2024/01/19 03:18:54;;;;;;;17.75;6.63;;;-0.40;99.90;;;;;;5094325;28;20668;-39
2024/01/19 03:21:20;;;;;;;14.07;6.07;;;-0.40;99.90;;;;;;5101778;28;20041;-39
2024/01/19 03:23:46;;;;;;;12.85;5.05;;;-0.40;99.90;;;;;;5095887;28;20024;-40
2024/01/19 03:26:11;;;;;;;15.23;7.60;;;-0.40;99.90;;;;;;5101163;28;20563;-40
2024/01/19 03:28:37;;;;;;;13.27;6.38;;;-0.40;99.90;;;;;;5095286;28;20150;-39
2024/01/19 03:31:03;;;;;;;16.70;6.97;;;-0.40;99.90;;;;;;5100395;28;20397;-39
2024/01/19 03:33:28;;;;;;;14.23;6.57;;;-0.40;99.90;;;;;;5097208;28;20024;-39
2024/01/19 03:35:54;;;;;;;16.48;7.10;;;-0.30;99.90;;;;;;5099600;28;20020;-39
2024/01/19 03:38:19;;;;;;;14.10;7.38;;;-0.40;99.90;;;;;;5103015;28;20468;-39
2024/01/19 03:40:47;;;;;;;13.52;6.32;;;-0.40;99.90;;;;;;5099012;28;20032;-39
2024/01/19 03:43:12;;;;;;;14.20;6.88;;;-0.40;99.90;;;;;;5102102;28;20027;-39
2024/01/19 03:45:38;;;;;;;14.13;6.20;;;-0.30;99.90;;;;;;5100726;28;20026;-39
2024/01/19 03:48:03;;;;;;;16.85;7.13;;;-0.40;99.90;;;;;;5100891;28;20016;-40
2024/01/19 03:50:29;;;;;;;14.02;6.57;;;-0.30;99.90;;;;;;5101481;28;20077;-40
2024/01/19 03:52:54;;;;;;;16.77;6.63;;;-0.30;99.90;;;;;;5099502;28;20503;-39
2024/01/19 03:55:20;;;;;;;15.07;7.55;;;-0.30;99.90;;;;;;5102272;28;20082;-39
2024/01/19 03:57:45;;;;;;;19.95;7.40;;;-0.30;99.90;;;;;;5099261;28;20504;-39
2024/01/19 04:00:11;;;;;;;15.10;7.60;;;-0.30;99.90;;;;;;5101312;28;20020;-40
2024/01/19 04:02:37;;;;;;;17.27;7.97;;;-0.30;99.90;;;;;;5100673;28;20465;-40
2024/01/19 04:05:03;;;;;;;12.38;6.80;;;-0.30;99.90;;;;;;5100671;28;20032;-40
2024/01/19 04:07:28;;;;;;;18.02;7.75;;;-0.30;99.90;;;;;;5102021;28;20299;-40
2024/01/19 04:09:54;;;;;;;13.57;6.95;;;-0.30;99.90;;;;;;5099162;28;20532;-39
2024/01/19 04:12:19;;;;;;;16.77;7.80;;;-0.30;99.90;;;;;;5102710;28;20030;-39
2024/01/19 04:14:45;;;;;;;18.65;9.00;;;-0.30;99.90;;;;;;5099974;28;20414;-39
2024/01/19 04:17:11;;;;;;;16.30;8.48;;;-0.30;99.90;;;;;;5101891;28;20091;-39
2024/01/19 04:19:38;;;;;;;13.65;8.50;;;-0.30;99.90;;;;;;5098749;28;20043;-39
2024/01/19 04:22:04;;;;;;;20.27;8.60;;;-0.30;99.90;;;;;;5100596;28;20020;-39
2024/01/19 04:24:30;;;;;;;17.13;9.80;;;-0.40;99.90;;;;;;5101941;28;20031;-39
2024/01/19 04:26:56;;;;;;;20.75;9.25;;;-0.40;99.90;;;;;;5099581;28;20027;-39
2024/01/19 04:29:22;;;;;;;20.52;9.77;;;-0.40;99.90;;;;;;5102649;28;20070;-38
2024/01/19 04:31:47;;;;;;;21.58;9.32;;;-0.40;99.90;;;;;;5099732;28;20407;-39
2024/01/19 04:34:13;;;;;;;19.10;9.88;;;-0.40;99.90;;;;;;5102433;28;20023;-39
2024/01/19 04:36:39;;;;;;;18.27;9.15;;;-0.50;99.90;;;;;;5101201;28;20028;-39
2024/01/19 04:39:04;;;;;;;14.27;8.98;;;-0.50;99.90;;;;;;5101354;28;20573;-39
2024/01/19 04:41:31;;;;;;;19.38;9.95;;;-0.50;99.90;;;;;;5101010;28;20055;-39
2024/01/19 04:43:56;;;;;;;19.33;9.80;;;-0.50;99.90;;;;;;5100439;28;20095;-39
2024/01/19 04:46:22;;;;;;;22.73;10.45;;;-0.50;99.90;;;;;;5101233;28;20502;-39
2024/01/19 04:48:47;;;;;;;17.92;10.52;;;-0.50;99.90;;;;;;5099825;28;20032;-39
2024/01/19 04:51:13;;;;;;;19.50;10.43;;;-0.60;99.90;;;;;;5102342;28;20019;-39
2024/01/19 04:53:39;;;;;;;21.77;10.80;;;-0.50;99.90;;;;;;5101608;28;20069;-39
2024/01/19 04:56:05;;;;;;;21.40;11.05;;;-0.60;99.90;;;;;;5101118;28;20073;-39
2024/01/19 04:58:35;;;;;;;25.77;11.73;;;-0.60;99.90;;;;;;5102599;28;20032;-39
2024/01/19 05:01:01;;;;;;;21.13;10.93;;;-0.60;99.90;;;;;;5100653;28;20027;-39
2024/01/19 05:03:27;;;;;;;26.58;11.88;;;-0.70;99.90;;;;;;5103207;28;20103;-39
2024/01/19 05:05:52;;;;;;;24.33;11.45;;;-0.70;99.90;;;;;;5099627;28;20388;-38
2024/01/19 05:08:18;;;;;;;22.17;11.43;;;-0.70;99.90;;;;;;5103036;28;20023;-39
2024/01/19 05:10:44;;;;;;;23.35;12.10;;;-0.80;99.90;;;;;;5101003;28;20032;-39
2024/01/19 05:13:09;;;;;;;22.00;11.38;;;-0.80;99.90;;;;;;5102085;28;20107;-39
2024/01/19 05:15:35;;;;;;;24.10;12.82;;;-0.80;99.90;;;;;;5102467;28;20526;-39
2024/01/19 05:18:01;;;;;;;27.45;11.88;;;-0.80;99.90;;;;;;5100984;28;20008;-39
2024/01/19 05:20:27;;;;;;;24.85;12.35;;;-0.80;99.90;;;;;;5101423;28;20024;-39
2024/01/19 05:22:53;;;;;;;27.40;12.02;;;-0.80;99.90;;;;;;5100270;28;20393;-38
2024/01/19 05:25:18;;;;;;;19.25;11.45;;;-0.80;99.90;;;;;;5103227;28;20020;-38
2024/01/19 05:27:45;;;;;;;23.63;11.73;;;-0.90;99.90;;;;;;5101264;28;20023;-39
2024/01/19 05:30:13;;;;;;;23.15;11.30;;;-0.80;99.90;;;;;;5105135;28;20058;-38
2024/01/19 05:32:39;;;;;;;19.17;10.70;;;-0.80;99.90;;;;;;5106178;28;20622;-38
2024/01/19 05:35:05;;;;;;;24.92;11.45;;;-0.80;99.90;;;;;;5105593;28;20127;-39
2024/01/19 05:37:30;;;;;;;19.13;10.48;;;-0.80;99.90;;;;;;5107147;28;20388;-38
2024/01/19 05:39:56;;;;;;;18.08;9.93;;;-0.80;99.90;;;;;;5103893;28;20031;-38
2024/01/19 05:42:22;;;;;;;23.10;11.60;;;-0.80;99.90;;;;;;5106863;28;20502;-38
2024/01/19 05:44:48;;;;;;;23.35;9.98;;;-0.80;99.90;;;;;;5104256;28;20031;-38
2024/01/19 05:47:13;;;;;;;20.48;9.88;;;-0.80;99.90;;;;;;5105277;28;20409;-39
2024/01/19 05:49:42;;;;;;;22.25;11.20;;;-0.80;99.90;;;;;;5103432;28;20019;-39
2024/01/19 05:52:07;;;;;;;21.42;10.27;;;-0.80;99.90;;;;;;5103747;28;20439;-38
2024/01/19 05:54:34;;;;;;;21.02;11.48;;;-0.80;99.90;;;;;;5105258;28;20042;-38
2024/01/19 05:56:59;;;;;;;23.58;12.02;;;-0.80;99.90;;;;;;5100612;28;20028;-38
2024/01/19 05:59:25;;;;;;;23.90;11.60;;;-0.80;99.90;;;;;;5105899;28;20076;-39
2024/01/19 06:01:50;;;;;;;20.70;11.48;;;-0.80;99.90;;;;;;5104412;28;20031;-38
2024/01/19 06:04:17;;;;;;;25.45;11.30;;;-0.80;99.90;;;;;;5107213;27;20120;-38
2024/01/19 06:06:43;;;;;;;25.23;11.88;;;-0.70;99.90;;;;;;5106202;28;20073;-37
2024/01/19 06:09:09;;;;;;;19.92;11.88;;;-0.70;99.90;;;;;;5106335;28;20485;-38
2024/01/19 06:11:34;;;;;;;25.52;14.98;;;-0.70;99.90;;;;;;5105564;28;20024;-38
2024/01/19 06:14:00;;;;;;;22.13;12.20;;;-0.70;99.90;;;;;;5105079;28;20107;-44
2024/01/19 06:16:26;;;;;;;25.15;11.82;;;-0.80;99.90;;;;;;5107196;28;20039;-38
2024/01/19 06:18:51;;;;;;;24.00;11.73;;;-0.80;99.90;;;;;;5103484;28;20028;-38
2024/01/19 06:21:17;;;;;;;29.90;13.27;;;-0.80;99.90;;;;;;5107252;28;20028;-39
2024/01/19 06:23:42;;;;;;;23.50;11.50;;;-0.80;99.90;;;;;;5105971;27;20421;-38
2024/01/19 06:26:12;;;;;;;22.17;12.40;;;-0.80;99.90;;;;;;5106144;28;20063;-38
2024/01/19 06:28:38;;;;;;;28.48;12.88;;;-0.80;99.90;;;;;;5106858;27;20024;-38
2024/01/19 06:31:05;;;;;;;36.67;13.80;;;-0.80;99.90;;;;;;5105046;28;20528;-38
2024/01/19 06:33:31;;;;;;;26.77;13.07;;;-0.80;99.90;;;;;;5106975;28;20381;-38
2024/01/19 06:35:56;;;;;;;29.88;13.70;;;-0.80;99.90;;;;;;5098207;28;20035;-39
2024/01/19 06:38:23;;;;;;;25.73;12.88;;;-0.80;99.90;;;;;;5106829;28;20038;-39
2024/01/19 06:40:49;;;;;;;27.40;12.52;;;-0.80;99.90;;;;;;5098650;28;20062;-39
2024/01/19 06:43:15;;;;;;;25.23;13.70;;;-0.80;99.90;;;;;;5106288;28;20032;-39
2024/01/19 06:45:40;;;;;;;27.40;13.80;;;-0.80;99.90;;;;;;5099720;28;20020;-38
2024/01/19 06:48:06;;;;;;;22.67;12.32;;;-0.70;99.90;;;;;;5104997;28;20020;-38
2024/01/19 06:50:31;;;;;;;24.27;11.98;;;-0.70;99.90;;;;;;5102501;27;20294;-39
2024/01/19 06:52:59;;;;;;;22.88;13.38;;;-0.70;99.90;;;;;;5103244;28;20536;-39
2024/01/19 06:55:25;;;;;;;25.92;13.88;;;-0.70;99.90;;;;;;5105755;28;20510;-39
2024/01/19 06:57:51;;;;;;;27.77;12.93;;;-0.60;99.90;;;;;;5095207;28;20058;-39
2024/01/19 07:00:18;;;;;;;27.85;13.75;;;-0.60;99.90;;;;;;5100337;28;20094;-39
2024/01/19 07:02:44;;;;;;;26.58;13.73;;;-0.60;99.90;;;;;;5098699;28;20024;-39
2024/01/19 07:05:09;;;;;;;25.27;12.63;;;-0.60;99.90;;;;;;5106452;28;20211;-39
2024/01/19 07:07:35;;;;;;;21.67;11.45;;;-0.60;99.90;;;;;;5107009;28;20102;-38
2024/01/19 07:10:01;;;;;;;21.73;11.85;;;-0.60;99.90;;;;;;5105143;28;20054;-39
2024/01/19 07:12:26;;;;;;;21.52;12.90;;;-0.60;99.90;;;;;;5107239;28;20024;-39
2024/01/19 07:14:52;;;;;;;26.23;15.18;;;-0.60;99.90;;;;;;5105316;28;20036;-39
2024/01/19 07:17:17;;;;;;;28.15;13.50;;;-0.60;99.90;;;;;;5107365;28;20408;-38
2024/01/19 07:19:43;;;;;;;25.50;12.95;;;-0.60;99.90;;;;;;5106948;28;20418;-39
2024/01/19 07:22:08;;;;;;;23.52;12.93;;;-0.60;99.90;;;;;;5096324;28;20500;-38
2024/01/19 07:24:35;;;;;;;30.33;13.93;;;-0.60;99.90;;;;;;5091048;28;20072;-39
2024/01/19 07:27:03;;;;;;;29.65;13.27;;;-0.60;99.90;;;;;;5090624;28;20028;-38
2024/01/19 07:29:30;;;;;;;20.42;12.85;;;-0.60;99.90;;;;;;5101971;28;20084;-39
2024/01/19 07:31:55;;;;;;;24.75;12.82;;;-0.60;99.90;;;;;;5105236;28;20381;-38
2024/01/19 07:34:21;;;;;;;27.42;13.10;;;-0.60;99.90;;;;;;5095994;28;20244;-38
2024/01/19 07:36:46;;;;;;;24.92;12.50;;;-0.60;99.90;;;;;;5091330;28;20424;-38
2024/01/19 07:39:12;;;;;;;28.05;13.43;;;-0.60;99.90;;;;;;5092656;28;20524;-39
2024/01/19 07:41:37;;;;;;;26.95;13.40;;;-0.60;99.90;;;;;;5098117;28;20012;-37
2024/01/19 07:44:03;;;;;;;20.38;12.23;;;-0.60;99.90;;;;;;5104248;28;20066;-38
2024/01/19 07:46:28;;;;;;;32.42;13.50;;;-0.50;99.90;;;;;;5107370;28;20038;-39
2024/01/19 07:48:54;;;;;;;23.70;13.18;;;-0.50;99.90;;;;;;5106000;28;20028;-38
2024/01/19 07:51:20;;;;;;;21.75;11.63;;;-0.50;99.90;;;;;;5107030;28;20366;-39
2024/01/19 07:53:46;;;;;;;22.38;12.82;;;-0.50;99.90;;;;;;5105762;28;20032;-39
2024/01/19 07:56:11;;;;;;;21.00;12.52;;;-0.50;99.90;;;;;;5099295;28;20397;-39
2024/01/19 07:58:37;;;;;;;21.65;12.02;;;-0.50;99.90;;;;;;5099184;28;20020;-38
2024/01/19 08:01:04;;;;;;;22.65;13.55;;;-0.50;99.90;;;;;;5104761;28;20035;-38
2024/01/19 08:03:30;;;;;;;30.55;12.25;;;-0.50;99.90;;;;;;5106106;28;20118;-38
2024/01/19 08:05:55;;;;;;;26.92;12.82;;;-0.50;99.90;;;;;;5105870;28;20106;-39
2024/01/19 08:08:23;;;;;;;20.38;12.18;;;-0.50;99.90;;;;;;5107541;28;20015;-39
2024/01/19 08:10:49;;;;;;;23.45;12.23;;;-0.40;99.90;;;;;;5106018;28;20023;-39
2024/01/19 08:13:14;;;;;;;29.73;12.27;;;-0.40;99.90;;;;;;5106903;28;20024;-38
2024/01/19 08:15:40;;;;;;;22.25;12.48;;;-0.40;99.90;;;;;;5107237;28;20102;-39
2024/01/19 08:18:05;;;;;;;18.98;11.43;;;-0.30;99.90;;;;;;5106022;28;20024;-40
2024/01/19 08:20:32;;;;;;;17.80;10.57;;;-0.30;99.90;;;;;;5105525;28;20096;-40
2024/01/19 08:22:57;;;;;;;18.80;11.50;;;-0.30;99.90;;;;;;5104422;28;20012;-40
2024/01/19 08:25:24;;;;;;;15.93;10.45;;;-0.20;99.90;;;;;;5092599;28;20032;-40
2024/01/19 08:27:50;;;;;;;22.13;12.38;;;-0.20;99.90;;;;;;5090237;28;20027;-40
2024/01/19 08:30:16;;;;;;;18.70;11.80;;;-0.10;99.90;;;;;;5090349;28;20076;-40
2024/01/19 08:32:42;;;;;;;18.30;11.48;;;-0.10;99.90;;;;;;5093335;28;20032;-40
2024/01/19 08:35:11;;;;;;;22.77;11.25;;;0.00;99.90;;;;;;5092122;28;20435;-40
2024/01/19 08:37:40;;;;;;;17.38;10.95;;;0.00;99.90;;;;;;5094334;28;20016;-41
2024/01/19 08:40:10;;;;;;;16.47;10.00;;;0.00;99.90;;;;;;5101732;28;20036;-39
2024/01/19 08:42:36;;;;;;;21.33;12.52;;;0.10;99.90;;;;;;5102513;28;20015;-40
2024/01/19 08:45:02;;;;;;;21.60;12.02;;;0.10;99.90;;;;;;5106458;28;20088;-39
2024/01/19 08:47:28;;;;;;;19.67;12.05;;;0.10;99.90;;;;;;5107164;28;20019;-40
2024/01/19 08:49:53;;;;;;;25.88;13.00;;;0.20;99.90;;;;;;5106392;28;20027;-39
2024/01/19 08:52:19;;;;;;;23.45;12.27;;;0.20;99.90;;;;;;5100979;28;20080;-41
2024/01/19 08:54:44;;;;;;;25.77;12.70;;;0.20;99.90;;;;;;5090793;28;20077;-41
2024/01/19 08:57:10;;;;;;;21.95;11.93;;;0.30;99.90;;;;;;5089849;28;20681;-40
2024/01/19 08:59:36;;;;;;;20.23;11.85;;;0.30;99.90;;;;;;5102481;28;20052;-39
2024/01/19 09:02:01;;;;;;;23.63;11.93;;;0.30;99.90;;;;;;5106369;28;20068;-39
2024/01/19 09:04:27;;;;;;;24.67;12.05;;;0.30;99.90;;;;;;5108765;28;20019;-40
2024/01/19 09:06:55;;;;;;;28.35;12.73;;;0.40;99.90;;;;;;5111552;28;20556;-39
2024/01/19 09:09:22;;;;;;;22.65;13.63;;;0.40;99.90;;;;;;5112095;28;20023;-39
2024/01/19 09:11:47;;;;;;;17.90;12.75;;;0.40;99.90;;;;;;5112079;28;20020;-39
2024/01/19 09:14:13;;;;;;;18.45;12.30;;;0.50;99.90;;;;;;5109362;28;20397;-39
2024/01/19 09:16:45;;;;;;;20.45;12.70;;;0.50;99.90;;;;;;5111827;28;20022;-40
2024/01/19 09:19:12;;;;;;;20.65;12.93;;;0.60;99.90;;;;;;5111437;27;20530;-40
2024/01/19 09:21:44;;;;;;;21.98;12.23;;;0.70;99.90;;;;;;5111608;28;20024;-40
2024/01/19 09:24:10;;;;;;;20.20;12.55;;;0.70;99.90;;;;;;5111533;27;20070;-40
2024/01/19 09:26:36;;;;;;;22.20;12.50;;;0.80;99.90;;;;;;5112002;28;20016;-40
2024/01/19 09:29:01;;;;;;;18.60;12.55;;;0.90;99.90;;;;;;5110074;28;20081;-40
2024/01/19 09:31:27;;;;;;;20.13;11.93;;;1.10;99.90;;;;;;5111811;28;20023;-40
2024/01/19 09:33:52;;;;;;;20.52;10.77;;;1.10;99.90;;;;;;5111480;28;20027;-40
2024/01/19 09:36:18;;;;;;;19.38;12.55;;;1.20;99.90;;;;;;5111986;28;20101;-40
2024/01/19 09:38:43;;;;;;;19.88;10.68;;;1.20;99.90;;;;;;5111665;28;20045;-40
2024/01/19 09:41:25;;;;;;;19.98;11.32;;;1.20;99.90;;;;;;5111310;28;20031;-39
2024/01/19 09:43:54;;;;;;;22.20;11.00;;;1.40;99.90;;;;;;5111988;28;20028;-39
2024/01/19 09:46:27;;;;;;;16.67;10.60;;;1.50;99.90;;;;;;5096665;28;20031;-40
2024/01/19 09:49:30;;;;;;;19.15;10.50;;;1.50;99.90;;;;;;5111698;28;20020;-40
2024/01/19 09:52:08;;;;;;;16.73;10.18;;;1.50;99.90;;;;;;5110555;28;20019;-39
2024/01/19 09:54:34;;;;;;;17.90;10.77;;;1.60;99.90;;;;;;5083906;28;20023;-40
2024/01/19 09:57:01;;;;;;;19.50;11.90;;;1.60;99.90;;;;;;5090763;28;20073;-39
2024/01/19 09:59:30;;;;;;;17.08;10.30;;;1.50;99.90;;;;;;5091293;28;20020;-39
2024/01/19 10:01:56;;;;;;;16.40;11.63;;;1.50;99.90;;;;;;5090756;28;20404;-39
2024/01/19 10:04:23;;;;;;;15.23;10.32;;;1.50;99.90;;;;;;5090867;28;20032;-40
2024/01/19 10:06:50;;;;;;;17.33;11.80;;;1.60;99.90;;;;;;5089761;28;20051;-40
2024/01/19 10:09:18;;;;;;;21.73;13.25;;;1.60;99.90;;;;;;5090292;28;20021;-39
2024/01/19 10:11:46;;;;;;;19.85;12.68;;;1.60;99.90;;;;;;5090968;28;20075;-39
2024/01/19 10:14:12;;;;;;;17.67;12.38;;;1.70;99.90;;;;;;5089795;28;20077;-39
2024/01/19 10:16:39;;;;;;;23.50;13.20;;;1.60;99.90;;;;;;5090411;28;20016;-40
2024/01/19 10:19:07;;;;;;;23.30;12.93;;;1.60;99.90;;;;;;5089986;28;20020;-40
2024/01/19 10:21:33;;;;;;;21.42;13.32;;;1.80;99.90;;;;;;5091549;28;20485;-40
2024/01/19 10:24:15;;;;;;;18.67;11.95;;;1.80;99.90;;;;;;5092125;28;20066;-40
2024/01/19 10:26:47;;;;;;;20.73;12.98;;;1.90;99.90;;;;;;5091577;28;20031;-40
2024/01/19 10:29:15;;;;;;;26.05;13.82;;;2.10;99.90;;;;;;5091958;28;20028;-39
2024/01/19 10:31:42;;;;;;;18.15;12.52;;;2.00;99.90;;;;;;5089747;28;20024;-40
2024/01/19 10:34:22;;;;;;;18.45;12.52;;;2.10;99.90;;;;;;5091818;28;20129;-40
2024/01/19 10:36:48;;;;;;;20.90;12.75;;;2.30;99.90;;;;;;5091716;28;20051;-40
2024/01/19 10:39:25;;;;;;;17.95;11.88;;;3.00;99.90;;;;;;5091937;28;20440;-40
2024/01/19 10:42:03;;;;;;;14.50;11.05;;;3.80;99.90;;;;;;5091861;28;20041;-40
2024/01/19 10:44:28;;;;;;;13.98;10.05;;;4.30;99.90;;;;;;5084960;28;20026;-40
2024/01/19 10:46:56;;;;;;;14.30;9.43;;;5.50;99.90;;;;;;5090739;28;20024;-41
2024/01/19 10:49:22;;;;;;;15.07;8.90;;;6.70;99.90;;;;;;5084009;28;20205;-41
2024/01/19 10:51:48;;;;;;;16.75;8.85;;;7.50;99.90;;;;;;5091103;28;20516;-41
2024/01/19 10:54:27;;;;;;;14.02;8.32;;;7.70;99.10;;;;;;5092400;28;20019;-41
2024/01/19 10:57:08;;;;;;;16.27;8.98;;;7.70;98.60;;;;;;5091644;28;20043;-41
2024/01/19 10:59:34;;;;;;;15.88;9.85;;;8.00;99.10;;;;;;5091613;28;20038;-44
2024/01/19 11:02:02;;;;;;;15.38;8.55;;;8.60;96.80;;;;;;5091882;28;20019;-42
2024/01/19 11:04:28;;;;;;;14.93;8.55;;;8.10;96.10;;;;;;5091299;28;20038;-41
2024/01/19 11:06:53;;;;;;;12.23;7.97;;;8.40;96.90;;;;;;5091488;28;20024;-41
2024/01/19 11:09:19;;;;;;;12.77;8.00;;;8.30;96.70;;;;;;5091337;28;20060;-43
2024/01/19 11:11:57;;;;;;;12.23;8.43;;;8.60;95.80;;;;;;5091364;28;20508;-42
2024/01/19 11:14:24;;;;;;;17.33;8.95;;;7.80;96.70;;;;;;5084073;28;20031;-41
2024/01/19 11:16:52;;;;;;;17.38;8.52;;;7.10;98.90;;;;;;5090311;28;20024;-40
2024/01/19 11:19:20;;;;;;;13.68;9.40;;;6.90;99.50;;;;;;5090851;28;20160;-42
2024/01/19 11:21:45;;;;;;;13.98;8.68;;;7.00;98.40;;;;;;5090360;28;20043;-41
2024/01/19 11:24:16;;;;;;;16.52;8.88;;;7.00;99.50;;;;;;5092424;28;20032;-41
2024/01/19 11:26:47;;;;;;;13.88;8.90;;;6.70;99.10;;;;;;5090218;28;20074;-41
2024/01/19 11:29:19;;;;;;;15.73;9.35;;;6.70;99.90;;;;;;5090839;28;20027;-41
2024/01/19 11:31:46;;;;;;;17.92;9.02;;;7.10;99.90;;;;;;5091201;28;20044;-42
2024/01/19 11:34:44;;;;;;;12.55;9.05;;;7.90;98.10;;;;;;5092519;28;20396;-41
2024/01/19 11:37:46;;;;;;;15.15;9.27;;;8.80;96.70;;;;;;5092174;28;20044;-42
2024/01/19 11:40:35;;;;;;;16.00;9.57;;;9.40;94.70;;;;;;5090499;28;20040;-41
2024/01/19 11:43:01;;;;;;;16.80;9.00;;;9.70;93.70;;;;;;5082391;28;20054;-41
2024/01/19 11:45:40;;;;;;;12.68;9.50;;;10.20;92.60;;;;;;5087459;28;20031;-42
2024/01/19 11:48:07;;;;;;;12.48;9.05;;;10.80;91.80;;;;;;5096496;28;20024;-41
2024/01/19 11:50:42;;;;;;;13.27;9.18;;;10.70;90.10;;;;;;5096017;28;20466;-42
2024/01/19 11:53:08;;;;;;;16.38;9.65;;;11.00;89.00;;;;;;5089653;28;20089;-41
2024/01/19 11:55:34;;;;;;;13.88;9.05;;;10.60;89.80;;;;;;5091974;28;20470;-41
2024/01/19 11:58:24;;;;;;;16.15;9.80;;;10.90;89.50;;;;;;5092571;28;20477;-41
2024/01/19 12:00:51;;;;;;;13.48;9.05;;;10.80;89.80;;;;;;5091464;28;20119;-43
2024/01/19 12:03:19;;;;;;;12.73;8.88;;;11.20;87.20;;;;;;5090260;28;20396;-42
2024/01/19 12:05:45;;;;;;;12.10;8.90;;;11.30;87.30;;;;;;5091929;28;20024;-43
2024/01/19 12:08:12;;;;;;;12.95;8.48;;;10.90;87.50;;;;;;5092663;28;20035;-43
2024/01/19 12:10:37;;;;;;;16.55;9.40;;;11.20;87.60;;;;;;5091343;28;20095;-41
2024/01/19 12:13:03;;;;;;;12.27;8.13;;;10.90;86.30;;;;;;5089328;28;20123;-42
2024/01/19 12:15:28;;;;;;;15.60;9.32;;;10.70;88.70;;;;;;5089586;28;20024;-43
2024/01/19 12:17:54;;;;;;;14.25;8.60;;;10.60;86.50;;;;;;5091706;28;20400;-41
2024/01/19 12:20:19;;;;;;;11.98;8.43;;;10.60;86.50;;;;;;5091991;28;20469;-42
2024/01/19 12:22:50;;;;;;;14.02;8.40;;;10.30;88.70;;;;;;5091567;28;20020;-42
2024/01/19 12:25:21;;;;;;;17.60;9.35;;;10.20;88.20;;;;;;5091192;28;20110;-41
2024/01/19 12:27:47;;;;;;;14.07;9.50;;;9.50;89.50;;;;;;5090570;28;20038;-41
2024/01/19 12:30:15;;;;;;;18.25;9.80;;;8.90;90.30;;;;;;5091416;28;20658;-41
2024/01/19 12:32:41;;;;;;;19.13;10.18;;;7.40;92.70;;;;;;5090490;28;20024;-42
2024/01/19 12:35:07;;;;;;;16.10;10.10;;;7.00;93.70;;;;;;5091950;28;20032;-41